TimeMST,TemperatureF,Dew PointF,Humidity,Sea Level PressureIn,VisibilityMPH,Wind Direction,Wind SpeedMPH,Gust SpeedMPH,PrecipitationIn,Events,Conditions,WindDirDegrees,DateUTC
12:55 AM,42.4,32.0,67,29.96,10.0,South,9.2,-,N/A,,Clear,180,2012-11-21 07:55:00
1:55 AM,48.2,30.2,50,29.92,10.0,South,15.0,-,N/A,,Clear,180,2012-11-21 08:55:00
2:55 AM,47.3,30.2,52,29.92,10.0,South,12.7,-,N/A,,Clear,170,2012-11-21 09:55:00
3:55 AM,45.9,30.2,54,29.92,10.0,South,15.0,-,N/A,,Clear,190,2012-11-21 10:55:00
4:55 AM,45.1,29.7,55,29.91,10.0,South,12.7,-,N/A,,Clear,180,2012-11-21 11:55:00
5:55 AM,45.9,28.0,50,29.92,10.0,South,12.7,-,N/A,,Clear,180,2012-11-21 12:55:00
6:55 AM,47.1,27.0,46,29.92,10.0,South,15.0,-,N/A,,Clear,180,2012-11-21 13:55:00
7:55 AM,46.6,26.6,46,30.02,10.0,South,13.8,-,N/A,,Scattered Clouds,180,2012-11-21 14:55:00
8:55 AM,51.6,26.6,38,30.02,10.0,South,17.3,-,N/A,,Scattered Clouds,170,2012-11-21 15:55:00
9:55 AM,54.3,28.4,37,30.03,10.0,SSW,10.4,-,N/A,,Scattered Clouds,210,2012-11-21 16:55:00
10:55 AM,57.2,28.8,34,30.04,10.0,SSW,13.8,-,N/A,,Mostly Cloudy,210,2012-11-21 17:55:00
11:55 AM,56.3,28.8,35,30.01,10.0,SSW,8.1,-,N/A,,Partly Cloudy,210,2012-11-21 18:55:00
12:55 PM,56.1,28.6,35,29.97,10.0,SSW,13.8,-,N/A,,Partly Cloudy,200,2012-11-21 19:55:00
1:55 PM,55.9,30.2,37,29.97,10.0,SSW,10.4,-,N/A,,Mostly Cloudy,200,2012-11-21 20:55:00
2:37 PM,55.4,30.2,38,29.96,10.0,South,9.2,-,N/A,,Overcast,190,2012-11-21 21:37:00
2:55 PM,55.6,29.8,37,29.95,10.0,South,11.5,-,N/A,,Overcast,180,2012-11-21 21:55:00
3:55 PM,54.1,31.5,42,29.96,10.0,SW,8.1,-,N/A,,Overcast,230,2012-11-21 22:55:00
4:55 PM,52.9,30.9,43,29.97,10.0,WNW,4.6,-,N/A,,Overcast,290,2012-11-21 23:55:00
5:06 PM,51.8,32.0,47,29.97,10.0,NNW,8.1,-,N/A,,Overcast,330,2012-11-22 00:06:00
5:46 PM,51.8,30.2,44,29.97,10.0,East,3.5,-,N/A,,Overcast,100,2012-11-22 00:46:00
5:55 PM,52.0,30.6,44,29.98,10.0,ESE,3.5,-,N/A,,Overcast,110,2012-11-22 00:55:00
5:57 PM,51.8,30.2,44,29.98,10.0,ESE,4.6,-,N/A,Rain,Light Rain,110,2012-11-22 00:57:00
6:08 PM,51.8,32.0,47,29.98,10.0,ESE,4.6,-,N/A,,Overcast,110,2012-11-22 01:08:00
6:55 PM,54.9,31.5,41,29.99,10.0,WSW,9.2,18.4,0.00,,Overcast,250,2012-11-22 01:55:00
7:18 PM,50.0,32.0,50,30.00,10.0,NNW,9.2,-,N/A,,Overcast,340,2012-11-22 02:18:00
7:42 PM,50.0,33.8,54,30.01,10.0,NNE,6.9,-,N/A,Rain,Light Rain,30,2012-11-22 02:42:00
7:55 PM,49.8,32.5,51,29.94,10.0,Calm,Calm,-,0.00,Rain,Light Rain,0,2012-11-22 02:55:00
8:05 PM,50.0,33.8,54,29.96,10.0,Calm,Calm,-,N/A,,Overcast,0,2012-11-22 03:05:00
8:11 PM,50.0,33.8,54,29.96,10.0,NW,5.8,-,N/A,Rain,Light Rain,310,2012-11-22 03:11:00
8:32 PM,48.2,33.8,58,29.95,10.0,NW,8.1,-,N/A,,Mostly Cloudy,310,2012-11-22 03:32:00
8:55 PM,48.0,33.8,58,29.96,10.0,NNW,13.8,-,0.00,,Overcast,330,2012-11-22 03:55:00
9:09 PM,48.2,33.8,58,29.98,10.0,NNW,15.0,-,N/A,,Overcast,330,2012-11-22 04:09:00
9:55 PM,43.3,36.3,76,30.04,10.0,North,11.5,18.4,N/A,,Overcast,350,2012-11-22 04:55:00
10:07 PM,42.8,35.6,76,30.04,10.0,North,16.1,-,N/A,,Overcast,350,2012-11-22 05:07:00
10:09 PM,42.8,35.6,76,30.04,10.0,North,13.8,-,N/A,,Overcast,350,2012-11-22 05:09:00
10:12 PM,42.8,35.6,76,30.04,10.0,NNW,13.8,-,N/A,,Overcast,340,2012-11-22 05:12:00
10:23 PM,42.8,35.6,76,30.05,10.0,NNW,12.7,-,N/A,,Overcast,330,2012-11-22 05:23:00
10:24 PM,42.8,35.6,76,30.05,10.0,NNW,12.7,-,N/A,,Overcast,330,2012-11-22 05:24:00
10:26 PM,42.8,35.6,76,30.05,10.0,NNW,13.8,-,N/A,,Overcast,340,2012-11-22 05:26:00
10:48 PM,41.0,35.6,81,30.06,10.0,NNW,10.4,-,N/A,,Mostly Cloudy,340,2012-11-22 05:48:00
10:55 PM,41.2,34.7,78,30.06,10.0,North,9.2,-,0.00,,Mostly Cloudy,360,2012-11-22 05:55:00
10:59 PM,41.0,33.8,76,30.06,10.0,North,8.1,-,N/A,,Overcast,350,2012-11-22 05:59:00
11:11 PM,41.0,33.8,76,30.07,10.0,North,6.9,-,N/A,,Overcast,350,2012-11-22 06:11:00
11:20 PM,41.0,33.8,76,30.07,10.0,North,8.1,-,N/A,,Overcast,360,2012-11-22 06:20:00
11:31 PM,41.0,32.0,70,30.09,10.0,NNW,4.6,-,N/A,,Overcast,340,2012-11-22 06:31:00
11:42 PM,41.0,32.0,70,30.10,10.0,NNW,8.1,-,N/A,,Overcast,340,2012-11-22 06:42:00
11:55 PM,41.0,32.0,70,30.11,10.0,NNW,6.9,-,0.00,,Overcast,340,2012-11-22 06:55:00